GEC847 SBEG-SKBO
Flight info
| Callsign | GEC847 |
|---|---|
| Flight time | 2h 12m |
| Altitude | 34000 |
| Route | SINUN UP527 EGDUK DCT EGEPI EGEPI3T |
| Aircraft | MD11/H-SDE1E2E3FGHIJ2J3J4J5M1RWXY/LB1D1 |
Departure
| Time | 2026-04-25 14:15 |
|---|---|
| Airport | Eduardo Gomes International Airport (SBEG) |
Arrival
| Time | 2026-04-25 16:28 |
|---|---|
| Airport | El Dorado International Airport (SKBO) |
| Time | Latitude | Longitude | Altitude | Speed | Heading |
|---|---|---|---|---|---|
| 2026-04-25 13:32 | -3.03148 | -60.04046 | 253 ft | 0 kts | 345° |
| 2026-04-25 14:02 | -3.03167 | -60.04040 | 253 ft | 4 kts | 334° |
| 2026-04-25 14:02 | -3.03175 | -60.04037 | 253 ft | 4 kts | 327° |
| 2026-04-25 14:03 | -3.03202 | -60.04006 | 253 ft | 4 kts | 284° |
| 2026-04-25 14:03 | -3.03205 | -60.03981 | 253 ft | 4 kts | 263° |
| 2026-04-25 14:03 | -3.03202 | -60.03963 | 253 ft | 4 kts | 256° |
| 2026-04-25 14:03 | -3.03208 | -60.03989 | 253 ft | 4 kts | 258° |
| 2026-04-25 14:04 | -3.03213 | -60.04010 | 253 ft | 0 kts | 256° |
| 2026-04-25 14:09 | -3.03214 | -60.04015 | 253 ft | 3 kts | 256° |
| 2026-04-25 14:09 | -3.03224 | -60.04054 | 253 ft | 9 kts | 256° |
| 2026-04-25 14:09 | -3.03244 | -60.04130 | 253 ft | 14 kts | 256° |
| 2026-04-25 14:09 | -3.03252 | -60.04164 | 253 ft | 16 kts | 255° |
| 2026-04-25 14:10 | -3.03309 | -60.04357 | 253 ft | 16 kts | 250° |
| 2026-04-25 14:10 | -3.03341 | -60.04469 | 253 ft | 18 kts | 257° |
| 2026-04-25 14:10 | -3.03356 | -60.04605 | 253 ft | 21 kts | 270° |
| 2026-04-25 14:10 | -3.03371 | -60.04759 | 253 ft | 23 kts | 249° |
| 2026-04-25 14:11 | -3.03472 | -60.04877 | 253 ft | 24 kts | 218° |
| 2026-04-25 14:11 | -3.03579 | -60.05008 | 253 ft | 26 kts | 246° |
| 2026-04-25 14:11 | -3.03630 | -60.05186 | 253 ft | 28 kts | 255° |
| 2026-04-25 14:11 | -3.03678 | -60.05377 | 253 ft | 26 kts | 259° |
| 2026-04-25 14:12 | -3.03693 | -60.05564 | 253 ft | 28 kts | 270° |
| 2026-04-25 14:12 | -3.03692 | -60.05766 | 253 ft | 30 kts | 270° |
| 2026-04-25 14:12 | -3.03692 | -60.05952 | 253 ft | 22 kts | 270° |
| 2026-04-25 14:12 | -3.03692 | -60.06076 | 253 ft | 14 kts | 267° |
| 2026-04-25 14:13 | -3.03738 | -60.06155 | 253 ft | 12 kts | 213° |
| 2026-04-25 14:13 | -3.03805 | -60.06169 | 253 ft | 9 kts | 182° |
| 2026-04-25 14:13 | -3.03848 | -60.06159 | 254 ft | 4 kts | 140° |
| 2026-04-25 14:13 | -3.03860 | -60.06125 | 254 ft | 6 kts | 95° |
| 2026-04-25 14:14 | -3.03860 | -60.06117 | 254 ft | 0 kts | 88° |
| 2026-04-25 14:14 | -3.03858 | -60.05875 | 253 ft | 79 kts | 90° |
| 2026-04-25 14:14 | -3.03860 | -60.05058 | 253 ft | 155 kts | 90° |
| 2026-04-25 14:15 | -3.03844 | -60.03817 | 583 ft | 182 kts | 90° |
| 2026-04-25 14:15 | -3.03841 | -60.03408 | 883 ft | 180 kts | 90° |
| 2026-04-25 14:15 | -3.03879 | -60.01391 | 2519 ft | 170 kts | 86° |
| 2026-04-25 14:15 | -3.03451 | -60.00293 | 3238 ft | 180 kts | 43° |
| 2026-04-25 14:16 | -3.02271 | -59.99776 | 3717 ft | 200 kts | 9° |
| 2026-04-25 14:16 | -3.00767 | -59.99625 | 3976 ft | 232 kts | 4° |
| 2026-04-25 14:16 | -2.99051 | -59.99543 | 4139 ft | 259 kts | 2° |
| 2026-04-25 14:16 | -2.97227 | -59.99471 | 4816 ft | 267 kts | 2° |
| 2026-04-25 14:17 | -2.95361 | -59.99398 | 5811 ft | 274 kts | 2° |
| 2026-04-25 14:17 | -2.93447 | -59.99332 | 6170 ft | 275 kts | 1° |
| 2026-04-25 14:17 | -2.91528 | -59.99272 | 6527 ft | 276 kts | 1° |
| 2026-04-25 14:17 | -2.89596 | -59.99218 | 6860 ft | 279 kts | 1° |
| 2026-04-25 14:18 | -2.87641 | -59.99168 | 6974 ft | 281 kts | 0° |
| 2026-04-25 14:18 | -2.85704 | -59.99337 | 6977 ft | 281 kts | 345° |
| 2026-04-25 14:18 | -2.83985 | -60.00223 | 7893 ft | 279 kts | 321° |
| 2026-04-25 14:18 | -2.82783 | -60.01743 | 8783 ft | 284 kts | 293° |
| 2026-04-25 14:19 | -2.82324 | -60.03678 | 9612 ft | 290 kts | 275° |
| 2026-04-25 14:19 | -2.82235 | -60.05701 | 10220 ft | 305 kts | 271° |
| 2026-04-25 14:19 | -2.82223 | -60.07930 | 10349 ft | 336 kts | 270° |
| 2026-04-25 14:19 | -2.82220 | -60.10375 | 10524 ft | 364 kts | 270° |
| 2026-04-25 14:20 | -2.82204 | -60.12929 | 11285 ft | 370 kts | 270° |
| 2026-04-25 14:20 | -2.82195 | -60.13802 | 11561 ft | 372 kts | 270° |
| 2026-04-25 14:20 | -2.82228 | -60.18156 | 12898 ft | 380 kts | 269° |
| 2026-04-25 14:20 | -2.82282 | -60.20820 | 13697 ft | 385 kts | 269° |
| 2026-04-25 14:21 | -2.82340 | -60.23524 | 14418 ft | 391 kts | 269° |
| 2026-04-25 14:21 | -2.82398 | -60.26250 | 15113 ft | 395 kts | 269° |
| 2026-04-25 14:21 | -2.82453 | -60.29016 | 15771 ft | 399 kts | 269° |
| 2026-04-25 14:21 | -2.82481 | -60.31774 | 16340 ft | 404 kts | 272° |
| 2026-04-25 14:22 | -2.82133 | -60.34571 | 16986 ft | 406 kts | 281° |
| 2026-04-25 14:22 | -2.81491 | -60.37337 | 17607 ft | 410 kts | 285° |
| 2026-04-25 14:22 | -2.80727 | -60.40105 | 18235 ft | 414 kts | 286° |
| 2026-04-25 14:22 | -2.79926 | -60.42887 | 18752 ft | 417 kts | 286° |
| 2026-04-25 14:23 | -2.79133 | -60.45654 | 19241 ft | 421 kts | 286° |
| 2026-04-25 14:23 | -2.78333 | -60.48494 | 19741 ft | 425 kts | 285° |
| 2026-04-25 14:23 | -2.77540 | -60.51353 | 20215 ft | 429 kts | 285° |
| 2026-04-25 14:23 | -2.76748 | -60.54240 | 20697 ft | 432 kts | 285° |
| 2026-04-25 14:24 | -2.75953 | -60.57154 | 21182 ft | 436 kts | 285° |
| 2026-04-25 14:24 | -2.75154 | -60.60092 | 21673 ft | 440 kts | 285° |
| 2026-04-25 14:24 | -2.74348 | -60.63059 | 22165 ft | 444 kts | 285° |
| 2026-04-25 14:24 | -2.73536 | -60.66050 | 22666 ft | 447 kts | 285° |
| 2026-04-25 14:25 | -2.72714 | -60.69073 | 23185 ft | 451 kts | 285° |
| 2026-04-25 14:25 | -2.71886 | -60.72118 | 23663 ft | 455 kts | 285° |
| 2026-04-25 14:25 | -2.71052 | -60.75187 | 24110 ft | 459 kts | 285° |
| 2026-04-25 14:25 | -2.70779 | -60.76190 | 24254 ft | 460 kts | 285° |
| 2026-04-25 14:26 | -2.69361 | -60.81404 | 25020 ft | 466 kts | 285° |
| 2026-04-25 14:26 | -2.68515 | -60.84511 | 25477 ft | 470 kts | 285° |
| 2026-04-25 14:26 | -2.67652 | -60.87683 | 25935 ft | 474 kts | 285° |
| 2026-04-25 14:26 | -2.66781 | -60.90885 | 26391 ft | 478 kts | 285° |
| 2026-04-25 14:27 | -2.65905 | -60.94105 | 26838 ft | 481 kts | 285° |
| 2026-04-25 14:27 | -2.65021 | -60.97352 | 27284 ft | 485 kts | 285° |
| 2026-04-25 14:27 | -2.64131 | -61.00620 | 27730 ft | 489 kts | 285° |
| 2026-04-25 14:27 | -2.63234 | -61.03916 | 28162 ft | 493 kts | 285° |
| 2026-04-25 14:28 | -2.62329 | -61.07240 | 28596 ft | 496 kts | 285° |
| 2026-04-25 14:28 | -2.61429 | -61.10544 | 29023 ft | 500 kts | 285° |
| 2026-04-25 14:28 | -2.60512 | -61.13912 | 29451 ft | 503 kts | 285° |
| 2026-04-25 14:28 | -2.59559 | -61.17287 | 29912 ft | 504 kts | 288° |
| 2026-04-25 14:29 | -2.58408 | -61.20610 | 30420 ft | 503 kts | 291° |
| 2026-04-25 14:29 | -2.57137 | -61.23820 | 30927 ft | 501 kts | 293° |
| 2026-04-25 14:29 | -2.55790 | -61.27035 | 31420 ft | 500 kts | 293° |
| 2026-04-25 14:29 | -2.54432 | -61.30228 | 31900 ft | 498 kts | 293° |
| 2026-04-25 14:30 | -2.53081 | -61.33416 | 32371 ft | 497 kts | 293° |
| 2026-04-25 14:30 | -2.50858 | -61.38730 | 33027 ft | 496 kts | 292° |
| 2026-04-25 14:30 | -2.49537 | -61.41921 | 33408 ft | 495 kts | 292° |
| 2026-04-25 14:31 | -2.48226 | -61.45099 | 33784 ft | 494 kts | 292° |
| 2026-04-25 14:31 | -2.46913 | -61.48287 | 33946 ft | 495 kts | 292° |
| 2026-04-25 14:31 | -2.44288 | -61.54664 | 33988 ft | 503 kts | 292° |
| 2026-04-25 14:32 | -2.41606 | -61.61178 | 33992 ft | 507 kts | 292° |
| 2026-04-25 14:32 | -2.38914 | -61.67713 | 33986 ft | 508 kts | 292° |
| 2026-04-25 14:33 | -2.36232 | -61.74223 | 33988 ft | 508 kts | 292° |
| 2026-04-25 14:33 | -2.33536 | -61.80763 | 33988 ft | 508 kts | 292° |
| 2026-04-25 14:34 | -2.30842 | -61.87298 | 33988 ft | 508 kts | 292° |
| 2026-04-25 14:34 | -2.28160 | -61.93801 | 33988 ft | 508 kts | 292° |
| 2026-04-25 14:35 | -2.25460 | -62.00344 | 33986 ft | 508 kts | 292° |
| 2026-04-25 14:35 | -2.22761 | -62.06884 | 33989 ft | 508 kts | 292° |
| 2026-04-25 14:36 | -2.20074 | -62.13374 | 33988 ft | 508 kts | 292° |
| 2026-04-25 14:36 | -2.17366 | -62.19895 | 33982 ft | 508 kts | 292° |
| 2026-04-25 14:37 | -2.14655 | -62.26423 | 33989 ft | 508 kts | 292° |
| 2026-04-25 14:37 | -2.11941 | -62.32958 | 33988 ft | 508 kts | 292° |
| 2026-04-25 14:38 | -2.09227 | -62.39494 | 33988 ft | 509 kts | 292° |
| 2026-04-25 14:38 | -2.06515 | -62.46025 | 33987 ft | 509 kts | 292° |
| 2026-04-25 14:39 | -2.03814 | -62.52527 | 33990 ft | 509 kts | 292° |
| 2026-04-25 14:39 | -2.01079 | -62.59078 | 33985 ft | 509 kts | 293° |
| 2026-04-25 14:40 | -1.98314 | -62.65606 | 33990 ft | 509 kts | 293° |
| 2026-04-25 14:40 | -1.95560 | -62.72086 | 33992 ft | 509 kts | 293° |
| 2026-04-25 14:41 | -1.92791 | -62.78610 | 33988 ft | 509 kts | 293° |
| 2026-04-25 14:41 | -1.90023 | -62.85136 | 33989 ft | 509 kts | 293° |
| 2026-04-25 14:42 | -1.87722 | -62.90560 | 33988 ft | 509 kts | 293° |
| 2026-04-25 14:42 | -1.84494 | -62.98168 | 33989 ft | 509 kts | 293° |
| 2026-04-25 14:43 | -1.81727 | -63.04689 | 33993 ft | 510 kts | 293° |
| 2026-04-25 14:43 | -1.78956 | -63.11220 | 33989 ft | 510 kts | 293° |
| 2026-04-25 14:44 | -1.76039 | -63.17694 | 33990 ft | 510 kts | 297° |
| 2026-04-25 14:44 | -1.72716 | -63.23921 | 33991 ft | 510 kts | 299° |
| 2026-04-25 14:45 | -1.69271 | -63.30146 | 33995 ft | 510 kts | 299° |
| 2026-04-25 14:45 | -1.65881 | -63.36338 | 33992 ft | 510 kts | 298° |
| 2026-04-25 14:46 | -1.62491 | -63.42583 | 33989 ft | 511 kts | 298° |
| 2026-04-25 14:46 | -1.59106 | -63.48830 | 33987 ft | 511 kts | 298° |
| 2026-04-25 14:47 | -1.56289 | -63.54027 | 33987 ft | 511 kts | 298° |
| 2026-04-25 14:47 | -1.52341 | -63.61307 | 33989 ft | 512 kts | 298° |
| 2026-04-25 14:48 | -1.48943 | -63.67572 | 33991 ft | 512 kts | 298° |
| 2026-04-25 14:48 | -1.45547 | -63.73831 | 33987 ft | 512 kts | 298° |
| 2026-04-25 14:49 | -1.42170 | -63.80055 | 33989 ft | 512 kts | 298° |
| 2026-04-25 14:49 | -1.38771 | -63.86321 | 33992 ft | 512 kts | 298° |
| 2026-04-25 14:50 | -1.35374 | -63.92579 | 33993 ft | 512 kts | 298° |
| 2026-04-25 14:50 | -1.31992 | -63.98810 | 33992 ft | 512 kts | 298° |
| 2026-04-25 14:51 | -1.28582 | -64.05093 | 33993 ft | 512 kts | 298° |
| 2026-04-25 14:51 | -1.25206 | -64.11314 | 33994 ft | 512 kts | 298° |
| 2026-04-25 14:52 | -1.21804 | -64.17582 | 33994 ft | 512 kts | 298° |
| 2026-04-25 14:52 | -1.18977 | -64.22789 | 33995 ft | 513 kts | 298° |
| 2026-04-25 14:53 | -1.14996 | -64.30125 | 33994 ft | 513 kts | 298° |
| 2026-04-25 14:53 | -1.11609 | -64.36363 | 33993 ft | 513 kts | 298° |
| 2026-04-25 14:54 | -1.08201 | -64.42640 | 33991 ft | 513 kts | 298° |
| 2026-04-25 14:54 | -1.04793 | -64.48917 | 33993 ft | 514 kts | 298° |
| 2026-04-25 14:55 | -1.01373 | -64.55216 | 33992 ft | 514 kts | 298° |
| 2026-04-25 14:55 | -0.97974 | -64.61475 | 33992 ft | 514 kts | 298° |
| 2026-04-25 14:56 | -0.94555 | -64.67769 | 33995 ft | 514 kts | 298° |
| 2026-04-25 14:56 | -0.91159 | -64.74023 | 33990 ft | 514 kts | 298° |
| 2026-04-25 14:57 | -0.87744 | -64.80311 | 33992 ft | 514 kts | 298° |
| 2026-04-25 14:57 | -0.84326 | -64.86603 | 33995 ft | 514 kts | 298° |
| 2026-04-25 14:58 | -0.80925 | -64.92864 | 33993 ft | 514 kts | 298° |
| 2026-04-25 14:58 | -0.77503 | -64.99164 | 33992 ft | 515 kts | 298° |
| 2026-04-25 14:59 | -0.74083 | -65.05461 | 33994 ft | 515 kts | 298° |
| 2026-04-25 14:59 | -0.70686 | -65.11714 | 33991 ft | 514 kts | 298° |
| 2026-04-25 15:00 | -0.67279 | -65.18007 | 33989 ft | 514 kts | 298° |
| 2026-04-25 15:00 | -0.63966 | -65.24345 | 33989 ft | 514 kts | 297° |
| 2026-04-25 15:01 | -0.60694 | -65.30700 | 33994 ft | 514 kts | 297° |
| 2026-04-25 15:01 | -0.57421 | -65.37051 | 33989 ft | 513 kts | 297° |
| 2026-04-25 15:02 | -0.54168 | -65.43346 | 33994 ft | 513 kts | 297° |
| 2026-04-25 15:02 | -0.50898 | -65.49672 | 33994 ft | 512 kts | 297° |
| 2026-04-25 15:03 | -0.47625 | -65.56006 | 33990 ft | 511 kts | 297° |
| 2026-04-25 15:03 | -0.44360 | -65.62323 | 33993 ft | 511 kts | 297° |
| 2026-04-25 15:04 | -0.41120 | -65.68592 | 33992 ft | 510 kts | 297° |
| 2026-04-25 15:04 | -0.37862 | -65.74897 | 33993 ft | 510 kts | 297° |
| 2026-04-25 15:05 | -0.34605 | -65.81200 | 33995 ft | 510 kts | 297° |
| 2026-04-25 15:06 | -0.29746 | -65.90603 | 33994 ft | 509 kts | 297° |
| 2026-04-25 15:06 | -0.26492 | -65.96899 | 33992 ft | 509 kts | 297° |
| 2026-04-25 15:07 | -0.23241 | -66.03191 | 33992 ft | 509 kts | 297° |
| 2026-04-25 15:07 | -0.19989 | -66.09483 | 33989 ft | 509 kts | 297° |
| 2026-04-25 15:08 | -0.16742 | -66.15766 | 33989 ft | 508 kts | 297° |
| 2026-04-25 15:08 | -0.13516 | -66.22008 | 33993 ft | 508 kts | 297° |
| 2026-04-25 15:09 | -0.10268 | -66.28293 | 33992 ft | 508 kts | 297° |
| 2026-04-25 15:09 | -0.05400 | -66.37713 | 33991 ft | 507 kts | 297° |
| 2026-04-25 15:10 | -0.02178 | -66.43947 | 33994 ft | 507 kts | 297° |
| 2026-04-25 15:11 | 0.02682 | -66.53354 | 34000 ft | 507 kts | 297° |
| 2026-04-25 15:11 | 0.05923 | -66.59625 | 33998 ft | 507 kts | 297° |
| 2026-04-25 15:12 | 0.10767 | -66.68998 | 34001 ft | 508 kts | 297° |
| 2026-04-25 15:12 | 0.12939 | -66.73201 | 33998 ft | 508 kts | 297° |
| 2026-04-25 15:13 | 0.18893 | -66.84723 | 33994 ft | 509 kts | 297° |
| 2026-04-25 15:14 | 0.22127 | -66.90981 | 33998 ft | 509 kts | 297° |
| 2026-04-25 15:14 | 0.25381 | -66.97279 | 34000 ft | 509 kts | 297° |
| 2026-04-25 15:15 | 0.28640 | -67.03585 | 33999 ft | 510 kts | 297° |
| 2026-04-25 15:15 | 0.31875 | -67.09846 | 33996 ft | 510 kts | 297° |
| 2026-04-25 15:16 | 0.35126 | -67.16160 | 33996 ft | 510 kts | 297° |
| 2026-04-25 15:16 | 0.39437 | -67.24560 | 33995 ft | 510 kts | 297° |
| 2026-04-25 15:17 | 0.44299 | -67.34035 | 33999 ft | 510 kts | 297° |
| 2026-04-25 15:18 | 0.47539 | -67.40346 | 33997 ft | 510 kts | 297° |
| 2026-04-25 15:18 | 0.52375 | -67.49767 | 33997 ft | 510 kts | 297° |
| 2026-04-25 15:19 | 0.55088 | -67.55052 | 34000 ft | 510 kts | 297° |
| 2026-04-25 15:19 | 0.58858 | -67.62395 | 33995 ft | 511 kts | 297° |
| 2026-04-25 15:20 | 0.62105 | -67.68722 | 33996 ft | 511 kts | 297° |
| 2026-04-25 15:20 | 0.65356 | -67.75056 | 33995 ft | 512 kts | 297° |
| 2026-04-25 15:21 | 0.68592 | -67.81360 | 33997 ft | 512 kts | 297° |
| 2026-04-25 15:21 | 0.71849 | -67.87707 | 33997 ft | 513 kts | 297° |
| 2026-04-25 15:22 | 0.75089 | -67.94020 | 33993 ft | 513 kts | 297° |
| 2026-04-25 15:22 | 0.78347 | -68.00368 | 33995 ft | 513 kts | 297° |
| 2026-04-25 15:23 | 0.81605 | -68.06717 | 33992 ft | 513 kts | 297° |
| 2026-04-25 15:23 | 0.84863 | -68.13068 | 33991 ft | 513 kts | 297° |
| 2026-04-25 15:24 | 0.88121 | -68.19417 | 33994 ft | 513 kts | 297° |
| 2026-04-25 15:24 | 0.90815 | -68.24667 | 33994 ft | 513 kts | 297° |
| 2026-04-25 15:25 | 0.94624 | -68.32091 | 33994 ft | 512 kts | 297° |
| 2026-04-25 15:25 | 0.97860 | -68.38399 | 33990 ft | 511 kts | 297° |
| 2026-04-25 15:26 | 1.01104 | -68.44722 | 33987 ft | 511 kts | 297° |
| 2026-04-25 15:26 | 1.04336 | -68.51022 | 33986 ft | 511 kts | 297° |
| 2026-04-25 15:27 | 1.07584 | -68.57355 | 33988 ft | 510 kts | 298° |
| 2026-04-25 15:28 | 1.12446 | -68.66834 | 33985 ft | 510 kts | 298° |
| 2026-04-25 15:28 | 1.15663 | -68.73109 | 33986 ft | 510 kts | 298° |
| 2026-04-25 15:29 | 1.18902 | -68.79425 | 33987 ft | 510 kts | 298° |
| 2026-04-25 15:29 | 1.22140 | -68.85738 | 33988 ft | 509 kts | 298° |
| 2026-04-25 15:30 | 1.25355 | -68.92008 | 33990 ft | 509 kts | 298° |
| 2026-04-25 15:30 | 1.28595 | -68.98327 | 33988 ft | 509 kts | 298° |
| 2026-04-25 15:31 | 1.31814 | -69.04605 | 33989 ft | 510 kts | 298° |
| 2026-04-25 15:31 | 1.35054 | -69.10926 | 33986 ft | 510 kts | 298° |
| 2026-04-25 15:32 | 1.38298 | -69.17254 | 33988 ft | 510 kts | 298° |
| 2026-04-25 15:32 | 1.41526 | -69.23551 | 33988 ft | 511 kts | 298° |
| 2026-04-25 15:33 | 1.46377 | -69.33016 | 33987 ft | 511 kts | 298° |
| 2026-04-25 15:33 | 1.49621 | -69.39348 | 33987 ft | 511 kts | 298° |
| 2026-04-25 15:34 | 1.52867 | -69.45685 | 33992 ft | 511 kts | 298° |
| 2026-04-25 15:34 | 1.55563 | -69.50945 | 33989 ft | 511 kts | 298° |
| 2026-04-25 15:35 | 1.61148 | -69.61356 | 33990 ft | 510 kts | 303° |
| 2026-04-25 15:36 | 1.66967 | -69.70276 | 33991 ft | 510 kts | 304° |
| 2026-04-25 15:36 | 1.70857 | -69.76168 | 33992 ft | 510 kts | 304° |
| 2026-04-25 15:37 | 1.74735 | -69.82110 | 33991 ft | 510 kts | 304° |
| 2026-04-25 15:37 | 1.78601 | -69.88060 | 33988 ft | 510 kts | 304° |
| 2026-04-25 15:38 | 1.82449 | -69.93982 | 33990 ft | 510 kts | 304° |
| 2026-04-25 15:38 | 1.86339 | -69.99967 | 33992 ft | 510 kts | 304° |
| 2026-04-25 15:39 | 1.90186 | -70.05885 | 33991 ft | 510 kts | 304° |
| 2026-04-25 15:39 | 1.94052 | -70.11832 | 33990 ft | 509 kts | 304° |
| 2026-04-25 15:40 | 1.96611 | -70.15769 | 33991 ft | 509 kts | 304° |
| 2026-04-25 15:40 | 2.01746 | -70.23670 | 33990 ft | 508 kts | 303° |
| 2026-04-25 15:41 | 2.05601 | -70.29603 | 33994 ft | 507 kts | 303° |
| 2026-04-25 15:41 | 2.09452 | -70.35531 | 33991 ft | 507 kts | 303° |
| 2026-04-25 15:42 | 2.13268 | -70.41406 | 33991 ft | 506 kts | 303° |
| 2026-04-25 15:42 | 2.17104 | -70.47311 | 33990 ft | 506 kts | 303° |
| 2026-04-25 15:43 | 2.20942 | -70.53220 | 33993 ft | 506 kts | 303° |
| 2026-04-25 15:43 | 2.24780 | -70.59130 | 33990 ft | 506 kts | 303° |
| 2026-04-25 15:44 | 2.28614 | -70.65033 | 33990 ft | 506 kts | 303° |
| 2026-04-25 15:44 | 2.32422 | -70.70910 | 33995 ft | 506 kts | 302° |
| 2026-04-25 15:45 | 2.36061 | -70.76951 | 33992 ft | 506 kts | 301° |
| 2026-04-25 15:45 | 2.38480 | -70.80938 | 34000 ft | 506 kts | 302° |
| 2026-04-25 15:46 | 2.43528 | -70.88904 | 33997 ft | 506 kts | 303° |
| 2026-04-25 15:46 | 2.47330 | -70.94786 | 33993 ft | 506 kts | 303° |
| 2026-04-25 15:47 | 2.51160 | -71.00714 | 33992 ft | 507 kts | 303° |
| 2026-04-25 15:47 | 2.54989 | -71.06655 | 33990 ft | 507 kts | 303° |
| 2026-04-25 15:48 | 2.58790 | -71.12555 | 33989 ft | 508 kts | 303° |
| 2026-04-25 15:48 | 2.62624 | -71.18506 | 33988 ft | 508 kts | 303° |
| 2026-04-25 15:49 | 2.66454 | -71.24451 | 33988 ft | 508 kts | 303° |
| 2026-04-25 15:49 | 2.70286 | -71.30399 | 33988 ft | 508 kts | 303° |
| 2026-04-25 15:50 | 2.74095 | -71.36314 | 33987 ft | 508 kts | 303° |
| 2026-04-25 15:50 | 2.77925 | -71.42261 | 33988 ft | 508 kts | 302° |
| 2026-04-25 15:51 | 2.80466 | -71.46207 | 33986 ft | 508 kts | 302° |
| 2026-04-25 15:51 | 2.85566 | -71.54128 | 33985 ft | 508 kts | 302° |
| 2026-04-25 15:52 | 2.89401 | -71.60086 | 33986 ft | 508 kts | 302° |
| 2026-04-25 15:52 | 2.93204 | -71.65996 | 33986 ft | 508 kts | 302° |
| 2026-04-25 15:53 | 2.97033 | -71.71947 | 33986 ft | 508 kts | 302° |
| 2026-04-25 15:53 | 3.00851 | -71.77884 | 33984 ft | 508 kts | 302° |
| 2026-04-25 15:54 | 3.04677 | -71.83832 | 33985 ft | 508 kts | 302° |
| 2026-04-25 15:54 | 3.08481 | -71.89746 | 33989 ft | 508 kts | 302° |
| 2026-04-25 15:55 | 3.12308 | -71.95696 | 33986 ft | 508 kts | 302° |
| 2026-04-25 15:55 | 3.16140 | -72.01656 | 33995 ft | 509 kts | 302° |
| 2026-04-25 15:56 | 3.19975 | -72.07622 | 33993 ft | 509 kts | 302° |
| 2026-04-25 15:56 | 3.23794 | -72.13563 | 33995 ft | 509 kts | 302° |
| 2026-04-25 15:57 | 3.27633 | -72.19536 | 33995 ft | 509 kts | 302° |
| 2026-04-25 15:57 | 3.31474 | -72.25514 | 34000 ft | 509 kts | 302° |
| 2026-04-25 15:58 | 3.35290 | -72.31453 | 33998 ft | 510 kts | 302° |
| 2026-04-25 15:58 | 3.39128 | -72.37428 | 34002 ft | 510 kts | 302° |
| 2026-04-25 15:59 | 3.42965 | -72.43405 | 34001 ft | 510 kts | 302° |
| 2026-04-25 15:59 | 3.46801 | -72.49381 | 34005 ft | 510 kts | 302° |
| 2026-04-25 16:00 | 3.49347 | -72.53347 | 34006 ft | 510 kts | 302° |
| 2026-04-25 16:00 | 3.54455 | -72.61305 | 34006 ft | 510 kts | 302° |
| 2026-04-25 16:01 | 3.58300 | -72.67296 | 34006 ft | 511 kts | 302° |
| 2026-04-25 16:01 | 3.62149 | -72.73294 | 34009 ft | 511 kts | 302° |
| 2026-04-25 16:02 | 3.65998 | -72.79293 | 34016 ft | 512 kts | 302° |
| 2026-04-25 16:02 | 3.69823 | -72.85258 | 34019 ft | 511 kts | 302° |
| 2026-04-25 16:03 | 3.73018 | -72.90239 | 34017 ft | 511 kts | 302° |
| 2026-04-25 16:03 | 3.77494 | -72.97220 | 34014 ft | 511 kts | 302° |
| 2026-04-25 16:04 | 3.80717 | -73.02248 | 34018 ft | 511 kts | 302° |
| 2026-04-25 16:04 | 3.84547 | -73.08224 | 34014 ft | 512 kts | 302° |
| 2026-04-25 16:05 | 3.88401 | -73.14241 | 34019 ft | 513 kts | 302° |
| 2026-04-25 16:06 | 3.94162 | -73.23237 | 34022 ft | 513 kts | 302° |
| 2026-04-25 16:06 | 3.98016 | -73.29254 | 34029 ft | 513 kts | 302° |
| 2026-04-25 16:07 | 4.01868 | -73.35270 | 34043 ft | 513 kts | 302° |
| 2026-04-25 16:07 | 4.05725 | -73.41293 | 34061 ft | 513 kts | 302° |
| 2026-04-25 16:08 | 4.09572 | -73.47304 | 34069 ft | 513 kts | 302° |
| 2026-04-25 16:08 | 4.13424 | -73.53322 | 34076 ft | 512 kts | 302° |
| 2026-04-25 16:09 | 4.17244 | -73.59294 | 34073 ft | 513 kts | 302° |
| 2026-04-25 16:09 | 4.21630 | -73.64910 | 34078 ft | 513 kts | 314° |
| 2026-04-25 16:10 | 4.26845 | -73.69779 | 34061 ft | 502 kts | 318° |
| 2026-04-25 16:10 | 4.29404 | -73.72058 | 33785 ft | 484 kts | 318° |
| 2026-04-25 16:10 | 4.31881 | -73.74284 | 33298 ft | 474 kts | 317° |
| 2026-04-25 16:10 | 4.34281 | -73.76474 | 32671 ft | 469 kts | 317° |
| 2026-04-25 16:11 | 4.36683 | -73.78695 | 32054 ft | 468 kts | 317° |
| 2026-04-25 16:11 | 4.39072 | -73.80923 | 31455 ft | 469 kts | 316° |
| 2026-04-25 16:11 | 4.41460 | -73.83161 | 30848 ft | 470 kts | 316° |
| 2026-04-25 16:11 | 4.43850 | -73.85404 | 30254 ft | 470 kts | 316° |
| 2026-04-25 16:12 | 4.46240 | -73.87649 | 29556 ft | 470 kts | 316° |
| 2026-04-25 16:12 | 4.48629 | -73.89892 | 28939 ft | 471 kts | 316° |
| 2026-04-25 16:12 | 4.51016 | -73.92132 | 28349 ft | 470 kts | 316° |
| 2026-04-25 16:12 | 4.52606 | -73.93624 | 28007 ft | 469 kts | 316° |
| 2026-04-25 16:13 | 4.55727 | -73.96552 | 27554 ft | 453 kts | 316° |
| 2026-04-25 16:13 | 4.57995 | -73.98663 | 27237 ft | 435 kts | 318° |
| 2026-04-25 16:13 | 4.60327 | -74.00516 | 26703 ft | 423 kts | 324° |
| 2026-04-25 16:13 | 4.62759 | -74.02148 | 26060 ft | 417 kts | 327° |
| 2026-04-25 16:14 | 4.65185 | -74.03657 | 25443 ft | 411 kts | 328° |
| 2026-04-25 16:14 | 4.67610 | -74.05134 | 24828 ft | 405 kts | 328° |
| 2026-04-25 16:14 | 4.70003 | -74.06594 | 24212 ft | 399 kts | 328° |
| 2026-04-25 16:14 | 4.72362 | -74.08047 | 23517 ft | 394 kts | 327° |
| 2026-04-25 16:15 | 4.74678 | -74.09484 | 22851 ft | 389 kts | 327° |
| 2026-04-25 16:15 | 4.76983 | -74.10923 | 22233 ft | 388 kts | 327° |
| 2026-04-25 16:15 | 4.79259 | -74.12348 | 21619 ft | 377 kts | 327° |
| 2026-04-25 16:15 | 4.81400 | -74.13688 | 21040 ft | 358 kts | 327° |
| 2026-04-25 16:16 | 4.83482 | -74.14992 | 20493 ft | 352 kts | 326° |
| 2026-04-25 16:16 | 4.85558 | -74.16293 | 19942 ft | 350 kts | 326° |
| 2026-04-25 16:16 | 4.87583 | -74.17562 | 19517 ft | 340 kts | 326° |
| 2026-04-25 16:16 | 4.89585 | -74.18818 | 19058 ft | 335 kts | 326° |
| 2026-04-25 16:17 | 4.91565 | -74.20060 | 18710 ft | 334 kts | 326° |
| 2026-04-25 16:17 | 4.93513 | -74.21283 | 18321 ft | 333 kts | 326° |
| 2026-04-25 16:17 | 4.95456 | -74.22538 | 17976 ft | 330 kts | 321° |
| 2026-04-25 16:17 | 4.97023 | -74.24189 | 17786 ft | 327 kts | 304° |
| 2026-04-25 16:18 | 4.98207 | -74.26135 | 17121 ft | 324 kts | 297° |
| 2026-04-25 16:18 | 4.98548 | -74.26787 | 16916 ft | 323 kts | 296° |
| 2026-04-25 16:18 | 5.00205 | -74.30137 | 16026 ft | 320 kts | 295° |
| 2026-04-25 16:18 | 5.01188 | -74.32134 | 15651 ft | 319 kts | 295° |
| 2026-04-25 16:19 | 5.02145 | -74.34138 | 15277 ft | 315 kts | 290° |
| 2026-04-25 16:19 | 5.02511 | -74.36211 | 14741 ft | 296 kts | 264° |
| 2026-04-25 16:19 | 5.01925 | -74.38135 | 14045 ft | 287 kts | 245° |
| 2026-04-25 16:20 | 5.00377 | -74.41812 | 13303 ft | 285 kts | 247° |
| 2026-04-25 16:20 | 4.99481 | -74.43572 | 13039 ft | 282 kts | 231° |
| 2026-04-25 16:20 | 4.96094 | -74.45190 | 12846 ft | 282 kts | 177° |
| 2026-04-25 16:21 | 4.94147 | -74.44917 | 12789 ft | 284 kts | 169° |
| 2026-04-25 16:21 | 4.92235 | -74.44429 | 12690 ft | 284 kts | 159° |
| 2026-04-25 16:21 | 4.90486 | -74.43521 | 12657 ft | 283 kts | 143° |
| 2026-04-25 16:21 | 4.89062 | -74.42167 | 12674 ft | 279 kts | 127° |
| 2026-04-25 16:22 | 4.88208 | -74.40562 | 12694 ft | 249 kts | 110° |
| 2026-04-25 16:22 | 4.87610 | -74.38947 | 12702 ft | 244 kts | 111° |
| 2026-04-25 16:22 | 4.86937 | -74.37384 | 12731 ft | 243 kts | 115° |
| 2026-04-25 16:22 | 4.86181 | -74.35897 | 12753 ft | 243 kts | 118° |
| 2026-04-25 16:23 | 4.85343 | -74.34439 | 12774 ft | 235 kts | 121° |
| 2026-04-25 16:23 | 4.84495 | -74.33088 | 12782 ft | 226 kts | 122° |
| 2026-04-25 16:23 | 4.83631 | -74.31782 | 12725 ft | 224 kts | 123° |
| 2026-04-25 16:23 | 4.82747 | -74.30496 | 12584 ft | 223 kts | 124° |
| 2026-04-25 16:24 | 4.81872 | -74.29257 | 12435 ft | 206 kts | 125° |
| 2026-04-25 16:24 | 4.81047 | -74.28111 | 11933 ft | 198 kts | 126° |
| 2026-04-25 16:24 | 4.80251 | -74.27022 | 11502 ft | 194 kts | 126° |
| 2026-04-25 16:24 | 4.79449 | -74.25932 | 11092 ft | 193 kts | 126° |
| 2026-04-25 16:25 | 4.78648 | -74.24851 | 10669 ft | 192 kts | 126° |
| 2026-04-25 16:25 | 4.78119 | -74.24139 | 10386 ft | 191 kts | 126° |
| 2026-04-25 16:25 | 4.77055 | -74.22713 | 9869 ft | 189 kts | 126° |
| 2026-04-25 16:25 | 4.76287 | -74.21688 | 9537 ft | 184 kts | 126° |
| 2026-04-25 16:26 | 4.75517 | -74.20662 | 9197 ft | 185 kts | 126° |
| 2026-04-25 16:26 | 4.74741 | -74.19642 | 8977 ft | 182 kts | 126° |
| 2026-04-25 16:26 | 4.73950 | -74.18637 | 8887 ft | 185 kts | 126° |
| 2026-04-25 16:26 | 4.73160 | -74.17600 | 8845 ft | 187 kts | 124° |
| 2026-04-25 16:27 | 4.72390 | -74.16565 | 8702 ft | 182 kts | 125° |
| 2026-04-25 16:27 | 4.71625 | -74.15574 | 8455 ft | 178 kts | 125° |
| 2026-04-25 16:27 | 4.70912 | -74.14624 | 8365 ft | 157 kts | 128° |
| 2026-04-25 16:27 | 4.70356 | -74.13895 | 8362 ft | 105 kts | 126° |
| 2026-04-25 16:28 | 4.70036 | -74.13483 | 8363 ft | 43 kts | 127° |
| 2026-04-25 16:28 | 4.69909 | -74.13346 | 8364 ft | 22 kts | 149° |
| 2026-04-25 16:28 | 4.69789 | -74.13305 | 8366 ft | 15 kts | 168° |
| 2026-04-25 16:28 | 4.69712 | -74.13293 | 8369 ft | 6 kts | 181° |
| 2026-04-25 16:29 | 4.69691 | -74.13307 | 8370 ft | 3 kts | 228° |
| 2026-04-25 16:29 | 4.69687 | -74.13339 | 8371 ft | 8 kts | 275° |
| 2026-04-25 16:29 | 4.69730 | -74.13415 | 8372 ft | 17 kts | 305° |
| 2026-04-25 16:29 | 4.69811 | -74.13521 | 8372 ft | 20 kts | 308° |
| 2026-04-25 16:30 | 4.69902 | -74.13638 | 8371 ft | 22 kts | 308° |
| 2026-04-25 16:30 | 4.70000 | -74.13766 | 8371 ft | 24 kts | 307° |
| 2026-04-25 16:30 | 4.70104 | -74.13905 | 8371 ft | 24 kts | 307° |
| 2026-04-25 16:30 | 4.70203 | -74.14034 | 8371 ft | 24 kts | 307° |
| 2026-04-25 16:31 | 4.70304 | -74.14169 | 8371 ft | 22 kts | 307° |
| 2026-04-25 16:31 | 4.70374 | -74.14260 | 8372 ft | 9 kts | 308° |
| 2026-04-25 16:31 | 4.70382 | -74.14270 | 8372 ft | 1 kts | 308° |
| 2026-04-25 16:31 | 4.70392 | -74.14287 | 8372 ft | 4 kts | 295° |
| 2026-04-25 16:32 | 4.70386 | -74.14324 | 8372 ft | 7 kts | 244° |
| 2026-04-25 16:32 | 4.70330 | -74.14376 | 8373 ft | 15 kts | 218° |
| 2026-04-25 16:32 | 4.70249 | -74.14437 | 8373 ft | 15 kts | 216° |
| 2026-04-25 16:32 | 4.70167 | -74.14497 | 8373 ft | 16 kts | 216° |
| 2026-04-25 16:33 | 4.70067 | -74.14573 | 8374 ft | 18 kts | 217° |
| 2026-04-25 16:33 | 4.69966 | -74.14644 | 8373 ft | 20 kts | 217° |
| 2026-04-25 16:33 | 4.69837 | -74.14743 | 8373 ft | 22 kts | 218° |
| 2026-04-25 16:33 | 4.69734 | -74.14798 | 8372 ft | 11 kts | 173° |
| 2026-04-25 16:34 | 4.69684 | -74.14751 | 8372 ft | 14 kts | 129° |
| 2026-04-25 16:34 | 4.69602 | -74.14641 | 8372 ft | 25 kts | 127° |
| 2026-04-25 16:34 | 4.69496 | -74.14500 | 8372 ft | 25 kts | 127° |
| 2026-04-25 16:34 | 4.69387 | -74.14359 | 8372 ft | 26 kts | 128° |
| 2026-04-25 16:35 | 4.69284 | -74.14226 | 8372 ft | 23 kts | 127° |
| 2026-04-25 16:35 | 4.69203 | -74.14118 | 8372 ft | 17 kts | 127° |
| 2026-04-25 16:35 | 4.69134 | -74.14029 | 8372 ft | 16 kts | 133° |
| 2026-04-25 16:35 | 4.69046 | -74.13945 | 8372 ft | 15 kts | 135° |
| 2026-04-25 16:36 | 4.69004 | -74.13890 | 8373 ft | 6 kts | 109° |
| 2026-04-25 16:36 | 4.69003 | -74.13878 | 8372 ft | 3 kts | 92° |
| 2026-04-25 16:36 | 4.69013 | -74.13853 | 8373 ft | 4 kts | 57° |
| 2026-04-25 16:36 | 4.69044 | -74.13835 | 8373 ft | 6 kts | 20° |
| 2026-04-25 16:37 | 4.69086 | -74.13817 | 8373 ft | 6 kts | 28° |
| 2026-04-25 16:37 | 4.69108 | -74.13802 | 8373 ft | 3 kts | 37° |
| 2026-04-25 16:37 | 4.69123 | -74.13789 | 8373 ft | 3 kts | 38° |
| 2026-04-25 16:37 | 4.69132 | -74.13782 | 8373 ft | 0 kts | 39° |
| 2026-04-25 16:38 | 4.69135 | -74.13779 | 8373 ft | 1 kts | 39° |
| 2026-04-25 16:38 | 4.69138 | -74.13778 | 8373 ft | 0 kts | 39° |